createdAt,value
2022-10-20T00:00:02.513Z,88.92
2022-10-20T00:01:02.485Z,89.03
2022-10-20T00:02:02.475Z,88.82
2022-10-20T00:03:02.554Z,89.85
2022-10-20T00:04:02.463Z,89.54
2022-10-20T00:05:02.429Z,88.72
2022-10-20T00:06:02.412Z,88.92
2022-10-20T00:07:02.489Z,89.54
2022-10-20T00:08:02.471Z,88.72
2022-10-20T00:09:02.552Z,88.62
2022-10-20T00:10:02.318Z,88.82
2022-10-20T00:11:02.324Z,88.92
2022-10-20T00:12:02.317Z,88.72
2022-10-20T00:13:02.288Z,89.34
2022-10-20T00:14:02.297Z,88.72
2022-10-20T00:15:02.248Z,88.92
2022-10-20T00:16:02.221Z,88.92
2022-10-20T00:17:02.214Z,88.62
2022-10-20T00:18:02.187Z,88.41
2022-10-20T00:19:02.208Z,88.72
2022-10-20T00:20:02.212Z,89.13
2022-10-20T00:21:02.146Z,88.41
2022-10-20T00:22:02.153Z,88.82
2022-10-20T00:23:02.102Z,88.72
2022-10-20T00:24:02.141Z,88.20
2022-10-20T00:25:02.064Z,87.99
2022-10-20T00:26:02.071Z,87.90
2022-10-20T00:27:02.045Z,87.79
2022-10-20T00:28:02.052Z,88.20
2022-10-20T00:29:02.037Z,87.54
2022-10-20T00:30:01.995Z,87.90
2022-10-20T00:31:01.963Z,87.99
2022-10-20T00:32:01.955Z,87.90
2022-10-20T00:33:01.933Z,87.54
2022-10-20T00:34:01.950Z,87.27
2022-10-20T00:35:01.910Z,87.38
2022-10-20T00:36:01.884Z,87.54
2022-10-20T00:37:01.881Z,87.44
2022-10-20T00:38:01.840Z,87.90
2022-10-20T00:39:01.866Z,87.44
2022-10-20T00:40:01.813Z,87.90
2022-10-20T00:41:01.790Z,88.10
2022-10-20T00:42:01.858Z,87.59
2022-10-20T00:43:01.796Z,87.90
2022-10-20T00:44:01.778Z,88.10
2022-10-20T00:45:01.754Z,87.85
2022-10-20T00:46:01.717Z,88.20
2022-10-20T00:47:01.756Z,88.41
2022-10-20T00:48:01.676Z,88.31
2022-10-20T00:49:01.724Z,87.90
2022-10-20T00:50:01.639Z,87.79
2022-10-20T00:51:01.679Z,87.96
2022-10-20T00:52:01.613Z,87.54
2022-10-20T00:53:01.598Z,87.03
2022-10-20T00:54:01.602Z,87.79
2022-10-20T00:55:01.567Z,87.48
2022-10-20T00:56:01.566Z,87.44
2022-10-20T00:58:01.538Z,87.59
2022-10-20T00:59:01.525Z,87.07
2022-10-20T01:00:01.482Z,87.85
2022-10-20T01:01:01.450Z,87.13
2022-10-20T01:02:01.521Z,87.85
2022-10-20T01:03:01.424Z,87.13
2022-10-20T01:04:01.428Z,87.85
2022-10-20T01:05:01.395Z,87.90
2022-10-20T01:06:01.368Z,87.13
2022-10-20T01:07:01.369Z,87.34
2022-10-20T01:08:01.387Z,87.85
2022-10-20T01:09:01.409Z,87.27
2022-10-20T01:10:01.293Z,87.59
2022-10-20T01:11:01.296Z,86.87
2022-10-20T01:12:01.261Z,87.48
2022-10-20T01:13:01.257Z,87.48
2022-10-20T01:14:01.280Z,87.34
2022-10-20T01:15:01.227Z,87.96
2022-10-20T01:16:01.207Z,87.38
2022-10-20T01:17:01.190Z,87.99
2022-10-20T01:18:01.167Z,88.10
2022-10-20T01:19:01.194Z,87.79
2022-10-20T01:20:01.125Z,87.79
2022-10-20T01:21:01.120Z,88.31
2022-10-20T01:22:01.093Z,87.90
2022-10-20T01:23:01.100Z,88.31
2022-10-20T01:24:01.080Z,87.99
2022-10-20T01:25:01.055Z,88.10
2022-10-20T01:26:01.059Z,88.31
2022-10-20T01:27:01.004Z,87.99
2022-10-20T01:28:00.998Z,88.06
2022-10-20T01:29:01.008Z,88.51
2022-10-20T01:30:00.965Z,88.31
2022-10-20T01:31:00.943Z,88.57
2022-10-20T01:32:00.935Z,88.31
2022-10-20T01:33:00.912Z,88.62
2022-10-20T01:34:00.944Z,88.41
2022-10-20T01:35:00.869Z,88.20
2022-10-20T01:36:00.873Z,88.20
2022-10-20T01:37:00.840Z,88.51
2022-10-20T01:38:00.815Z,88.72
2022-10-20T01:39:00.835Z,88.92
2022-10-20T01:40:00.803Z,88.62
2022-10-20T01:41:00.767Z,89.95
2022-10-20T01:42:00.760Z,89.54
2022-10-20T01:43:00.747Z,89.44
2022-10-20T01:44:00.756Z,89.69
2022-10-20T01:45:00.710Z,89.95
2022-10-20T01:46:00.685Z,89.54
2022-10-20T01:47:00.677Z,89.23
2022-10-20T01:48:00.640Z,89.23
2022-10-20T01:49:00.656Z,89.34
2022-10-20T01:50:00.619Z,89.54
2022-10-20T01:51:00.615Z,89.34
2022-10-20T01:52:00.580Z,89.65
2022-10-20T01:53:00.562Z,89.34
2022-10-20T01:54:00.585Z,89.54
2022-10-20T01:55:00.528Z,89.95
2022-10-20T01:56:00.523Z,89.54
2022-10-20T01:57:00.496Z,89.65
2022-10-20T01:58:00.474Z,89.44
2022-10-20T01:59:00.503Z,89.44
2022-10-20T02:00:00.460Z,89.89
2022-10-20T02:01:00.441Z,90.00
2022-10-20T02:02:00.432Z,89.95
2022-10-20T02:03:00.425Z,90.20
2022-10-20T02:04:00.411Z,89.38
2022-10-20T02:05:00.374Z,89.65
2022-10-20T02:06:00.353Z,89.38
2022-10-20T02:07:00.328Z,90.26
2022-10-20T02:08:00.306Z,90.00
2022-10-20T02:09:00.334Z,90.47
2022-10-20T02:10:00.299Z,90.00
2022-10-20T02:11:00.258Z,90.51
2022-10-20T02:12:00.244Z,90.41
2022-10-20T02:13:00.217Z,89.89
2022-10-20T02:14:00.244Z,89.75
2022-10-20T02:15:00.203Z,89.85
2022-10-20T02:16:00.197Z,90.10
2022-10-20T02:17:00.172Z,89.13
2022-10-20T02:18:00.165Z,89.54
2022-10-20T02:19:00.311Z,89.85
2022-10-20T02:20:00.142Z,89.69
2022-10-20T02:21:00.091Z,89.38
2022-10-20T02:22:00.088Z,89.69
2022-10-20T02:23:00.056Z,89.17
2022-10-20T02:24:00.068Z,89.58
2022-10-20T02:25:00.023Z,90.20
2022-10-20T02:25:59.999Z,89.79
2022-10-20T02:26:59.981Z,90.20
2022-10-20T02:29:00.980Z,90.31
2022-10-20T02:29:59.924Z,90.31
2022-10-20T02:30:59.908Z,90.10
2022-10-20T02:31:59.891Z,90.31
2022-10-20T02:32:59.873Z,90.10
2022-10-20T02:33:59.888Z,90.20
2022-10-20T02:35:03.583Z,90.20
2022-10-20T02:36:01.834Z,90.41
2022-10-20T02:36:59.806Z,90.51
2022-10-20T02:37:59.800Z,89.79
2022-10-20T02:38:59.821Z,90.61
2022-10-20T02:39:59.758Z,90.10
2022-10-20T02:40:59.740Z,90.10
2022-10-20T02:41:59.726Z,90.00
2022-10-20T02:42:59.735Z,89.79
2022-10-20T02:43:59.743Z,90.20
2022-10-20T02:44:59.672Z,89.28
2022-10-20T02:45:59.660Z,90.72
2022-10-20T02:46:59.652Z,89.48
2022-10-20T02:47:59.625Z,89.38
2022-10-20T02:48:59.645Z,89.28
2022-10-20T02:49:59.596Z,89.65
2022-10-20T02:50:59.593Z,89.38
2022-10-20T02:51:59.562Z,89.69
2022-10-20T02:53:00.537Z,89.69
2022-10-20T02:53:59.560Z,89.69
2022-10-20T02:54:59.509Z,89.17
2022-10-20T02:55:59.503Z,89.89
2022-10-20T02:56:59.495Z,90.00
2022-10-20T02:57:59.480Z,90.20
2022-10-20T02:58:59.472Z,90.31
2022-10-20T02:59:59.449Z,90.25
2022-10-20T03:00:59.418Z,90.04
2022-10-20T03:01:59.455Z,90.61
2022-10-20T03:02:59.379Z,90.66
2022-10-20T03:03:59.402Z,90.20
2022-10-20T03:04:59.335Z,90.51
2022-10-20T03:05:59.362Z,90.41
2022-10-20T03:06:59.330Z,90.14
2022-10-20T03:07:59.284Z,90.76
2022-10-20T03:08:59.354Z,90.35
2022-10-20T03:09:59.263Z,90.76
2022-10-20T03:10:59.257Z,90.86
2022-10-20T03:11:59.210Z,90.97
2022-10-20T03:12:59.219Z,90.86
2022-10-20T03:13:59.226Z,90.86
2022-10-20T03:14:59.190Z,91.07
2022-10-20T03:15:59.252Z,90.86
2022-10-20T03:16:59.147Z,90.86
2022-10-20T03:17:59.115Z,91.17
2022-10-20T03:19:03.336Z,90.76
2022-10-20T03:20:00.088Z,91.07
2022-10-20T03:20:59.066Z,90.86
2022-10-20T03:21:59.082Z,91.17
2022-10-20T03:22:59.032Z,91.28
2022-10-20T03:23:59.042Z,90.86
2022-10-20T03:24:59.009Z,91.42
2022-10-20T03:25:59.005Z,91.07
2022-10-20T03:26:58.992Z,91.32
2022-10-20T03:27:58.970Z,91.22
2022-10-20T03:28:59.970Z,91.73
2022-10-20T03:29:58.958Z,91.94
2022-10-20T03:30:58.902Z,91.83
2022-10-20T03:31:58.952Z,92.14
2022-10-20T03:32:58.903Z,92.14
2022-10-20T03:33:58.905Z,91.94
2022-10-20T03:34:58.862Z,91.94
2022-10-20T03:35:58.836Z,92.19
2022-10-20T03:36:58.811Z,92.25
2022-10-20T03:37:58.808Z,91.94
2022-10-20T03:38:58.849Z,92.55
2022-10-20T03:39:58.810Z,92.76
2022-10-20T03:40:58.845Z,92.66
2022-10-20T03:41:58.747Z,92.76
2022-10-20T03:42:58.727Z,92.76
2022-10-20T03:43:58.768Z,92.66
2022-10-20T03:44:58.721Z,92.55
2022-10-20T03:45:58.707Z,92.46
2022-10-20T03:46:58.650Z,92.76
2022-10-20T03:47:58.699Z,92.76
2022-10-20T03:48:58.656Z,92.66
2022-10-20T03:49:58.665Z,92.76
2022-10-20T03:50:58.638Z,92.70
2022-10-20T03:51:58.580Z,92.55
2022-10-20T03:52:58.545Z,92.46
2022-10-20T03:53:58.556Z,92.35
2022-10-20T03:54:58.547Z,92.46
2022-10-20T03:55:58.494Z,92.80
2022-10-20T03:56:58.487Z,93.01
2022-10-20T03:57:58.495Z,92.97
2022-10-20T03:58:59.544Z,92.50
2022-10-20T03:59:58.439Z,92.46
2022-10-20T04:00:58.453Z,92.70
2022-10-20T04:01:58.565Z,93.07
2022-10-20T04:02:58.365Z,92.46
2022-10-20T04:03:58.393Z,92.55
2022-10-20T04:04:58.361Z,92.80
2022-10-20T04:05:58.350Z,92.60
2022-10-20T04:06:58.344Z,92.76
2022-10-20T04:07:58.356Z,92.46
2022-10-20T04:08:58.340Z,92.50
2022-10-20T04:09:58.292Z,92.76
2022-10-20T04:10:58.254Z,91.94
2022-10-20T04:11:58.205Z,92.08
2022-10-20T04:12:58.207Z,92.97
2022-10-20T04:13:58.240Z,92.76
2022-10-20T04:14:58.184Z,92.14
2022-10-20T04:15:58.176Z,92.04
2022-10-20T04:16:58.236Z,92.04
2022-10-20T04:17:58.142Z,92.19
2022-10-20T04:18:58.141Z,92.04
2022-10-20T04:19:58.087Z,92.04
2022-10-20T04:20:58.062Z,92.19
2022-10-20T04:21:58.038Z,92.19
2022-10-20T04:22:58.033Z,92.14
2022-10-20T04:23:58.042Z,92.25
2022-10-20T04:24:58.028Z,91.63
2022-10-20T04:25:58.001Z,91.94
2022-10-20T04:26:58.018Z,91.42
2022-10-20T04:27:57.960Z,91.63
2022-10-20T04:28:57.996Z,91.32
2022-10-20T04:29:57.918Z,91.32
2022-10-20T04:30:57.913Z,91.42
2022-10-20T04:31:57.907Z,91.22
2022-10-20T04:32:57.889Z,91.42
2022-10-20T04:33:57.877Z,90.70
2022-10-20T04:34:57.834Z,90.70
2022-10-20T04:35:57.830Z,90.14
2022-10-20T04:36:57.798Z,90.25
2022-10-20T04:37:57.797Z,90.14
2022-10-20T04:38:57.793Z,89.98
2022-10-20T04:39:57.754Z,90.35
2022-10-20T04:41:00.312Z,89.94
2022-10-20T04:41:58.715Z,89.42
2022-10-20T04:42:57.694Z,89.98
2022-10-20T04:43:57.711Z,90.14
2022-10-20T04:45:57.651Z,90.66
2022-10-20T04:46:57.626Z,89.98
2022-10-20T04:47:57.626Z,90.28
2022-10-20T04:48:57.636Z,90.49
2022-10-20T04:49:57.568Z,90.70
2022-10-20T04:50:57.603Z,90.80
2022-10-20T04:52:01.040Z,90.70
2022-10-20T04:52:58.504Z,90.80
2022-10-20T04:53:57.606Z,91.11
2022-10-20T04:54:57.483Z,90.70
2022-10-20T04:55:57.543Z,91.32
2022-10-20T04:56:57.446Z,91.32
2022-10-20T04:57:57.454Z,90.80
2022-10-20T04:58:57.461Z,90.70
2022-10-20T04:59:58.419Z,90.91
2022-10-20T05:00:57.370Z,90.70
2022-10-20T05:01:57.444Z,90.91
2022-10-20T05:02:57.412Z,91.32
2022-10-20T05:03:57.416Z,91.11
2022-10-20T05:04:57.336Z,90.80
2022-10-20T05:05:57.315Z,91.11
2022-10-20T05:06:57.298Z,90.80
2022-10-20T05:07:57.279Z,91.42
2022-10-20T05:08:57.317Z,90.70
2022-10-20T05:09:57.233Z,91.05
2022-10-20T05:10:57.230Z,91.46
2022-10-20T05:11:57.218Z,90.91
2022-10-20T05:12:57.210Z,91.42
2022-10-20T05:13:57.201Z,91.67
2022-10-20T05:14:57.161Z,91.11
2022-10-20T05:15:57.142Z,91.83
2022-10-20T05:16:57.116Z,91.46
2022-10-20T05:17:57.092Z,91.88
2022-10-20T05:18:57.112Z,91.67
2022-10-20T05:19:57.049Z,91.77
2022-10-20T05:21:08.377Z,91.98
2022-10-20T05:21:59.041Z,91.32
2022-10-20T05:22:56.998Z,91.46
2022-10-20T05:23:57.018Z,91.88
2022-10-20T05:25:04.053Z,92.29
2022-10-20T05:25:58.973Z,92.08
2022-10-20T05:26:56.963Z,92.19
2022-10-20T05:27:57.934Z,92.29
2022-10-20T05:28:57.009Z,91.83
2022-10-20T05:29:56.992Z,91.42
2022-10-20T05:30:59.232Z,91.94
2022-10-20T05:31:56.852Z,91.94
2022-10-20T05:32:56.856Z,91.73
2022-10-20T05:33:56.847Z,91.63
2022-10-20T05:34:56.817Z,91.32
2022-10-20T05:35:56.789Z,91.11
2022-10-20T05:36:56.869Z,91.42
2022-10-20T05:37:56.747Z,91.32
2022-10-20T05:38:56.827Z,90.91
2022-10-20T05:39:56.714Z,90.91
2022-10-20T05:40:56.688Z,90.80
2022-10-20T05:41:56.682Z,91.01
2022-10-20T05:42:56.672Z,91.56
2022-10-20T05:43:56.695Z,92.29
2022-10-20T05:44:56.641Z,92.70
2022-10-20T05:45:56.617Z,93.63
2022-10-20T05:46:56.595Z,93.43
2022-10-20T05:47:56.579Z,93.01
2022-10-20T05:48:56.615Z,93.12
2022-10-20T05:49:56.532Z,93.22
2022-10-20T05:50:56.555Z,93.63
2022-10-20T05:51:56.530Z,93.22
2022-10-20T05:52:56.484Z,93.01
2022-10-20T05:53:56.514Z,92.80
2022-10-20T05:54:56.498Z,92.40
2022-10-20T05:55:57.479Z,93.22
2022-10-20T05:56:56.431Z,93.01
2022-10-20T05:57:56.424Z,93.22
2022-10-20T05:58:56.442Z,93.01
2022-10-20T05:59:56.402Z,93.12
2022-10-20T06:00:56.481Z,93.18
2022-10-20T06:01:56.340Z,92.97
2022-10-20T06:02:56.322Z,92.76
2022-10-20T06:03:56.366Z,92.97
2022-10-20T06:04:56.289Z,93.18
2022-10-20T06:05:56.316Z,93.38
2022-10-20T06:06:56.340Z,93.18
2022-10-20T06:07:56.315Z,93.18
2022-10-20T06:08:56.358Z,93.07
2022-10-20T06:09:56.223Z,93.18
2022-10-20T06:10:56.202Z,93.28
2022-10-20T06:11:56.211Z,92.76
2022-10-20T06:12:56.166Z,92.86
2022-10-20T06:13:56.171Z,92.72
2022-10-20T06:14:56.125Z,93.03
2022-10-20T06:15:56.093Z,93.38
2022-10-20T06:16:56.102Z,92.31
2022-10-20T06:17:56.095Z,92.51
2022-10-20T06:18:56.115Z,92.72
2022-10-20T06:19:56.160Z,92.06
2022-10-20T06:20:56.033Z,91.54
2022-10-20T06:21:56.026Z,91.03
2022-10-20T06:22:56.000Z,91.03
2022-10-20T06:23:56.159Z,91.09
2022-10-20T06:24:56.022Z,91.30
2022-10-20T06:25:55.939Z,90.67
2022-10-20T06:26:55.930Z,90.33
2022-10-20T06:27:55.902Z,90.12
2022-10-20T06:28:59.806Z,89.91
2022-10-20T06:29:58.496Z,89.05
2022-10-20T06:30:55.890Z,89.83
2022-10-20T06:31:55.855Z,88.18
2022-10-20T06:32:55.825Z,88.24
2022-10-20T06:33:55.842Z,87.52
2022-10-20T06:34:55.751Z,87.49
2022-10-20T06:35:55.754Z,86.56
2022-10-20T06:36:55.778Z,86.66
2022-10-20T06:37:55.714Z,87.55
2022-10-20T06:38:55.719Z,85.70
2022-10-20T06:39:55.682Z,86.11
2022-10-20T06:40:55.645Z,86.89
2022-10-20T06:41:55.627Z,85.97
2022-10-20T06:43:55.651Z,84.84
2022-10-20T06:44:55.612Z,84.39
2022-10-20T06:45:55.578Z,84.39
2022-10-20T06:46:55.604Z,84.49
2022-10-20T06:47:55.530Z,84.28
2022-10-20T06:48:58.596Z,83.98
2022-10-20T06:49:56.520Z,83.83
2022-10-20T06:50:55.497Z,83.01
2022-10-20T06:51:55.603Z,83.32
2022-10-20T06:52:55.464Z,83.22
2022-10-20T06:53:55.486Z,83.32
2022-10-20T06:54:55.469Z,82.87
2022-10-20T06:55:55.460Z,82.70
2022-10-20T06:56:55.391Z,83.73
2022-10-20T06:57:56.389Z,83.32
2022-10-20T06:58:55.380Z,83.01
2022-10-20T06:59:55.320Z,84.08
2022-10-20T07:00:55.305Z,83.98
2022-10-20T07:01:55.386Z,84.39
2022-10-20T07:02:55.288Z,84.14
2022-10-20T07:03:55.291Z,84.04
2022-10-20T07:04:55.322Z,83.59
2022-10-20T07:05:55.242Z,82.73
2022-10-20T07:06:55.204Z,82.83
2022-10-20T07:07:55.220Z,82.01
2022-10-20T07:08:55.250Z,81.50
2022-10-20T07:09:55.166Z,81.60
2022-10-20T07:10:55.141Z,81.36
2022-10-20T07:11:55.108Z,81.05
2022-10-20T07:12:55.156Z,80.95
2022-10-20T07:13:55.177Z,80.71
2022-10-20T07:14:55.083Z,80.44
2022-10-20T07:15:55.072Z,80.85
2022-10-20T07:16:55.046Z,81.15
2022-10-20T07:17:56.032Z,80.74
2022-10-20T07:18:55.033Z,80.85
2022-10-20T07:19:55.037Z,81.12
2022-10-20T07:20:55.004Z,80.64
2022-10-20T07:21:55.006Z,81.15
2022-10-20T07:22:54.944Z,81.57
2022-10-20T07:23:54.962Z,81.98
2022-10-20T07:24:54.993Z,81.67
2022-10-20T07:25:54.939Z,81.87
2022-10-20T07:26:54.944Z,81.43
2022-10-20T07:27:54.895Z,80.91
2022-10-20T07:28:56.185Z,81.12
2022-10-20T07:29:55.849Z,81.84
2022-10-20T07:30:54.833Z,80.81
2022-10-20T07:31:55.997Z,80.71
2022-10-20T07:32:54.795Z,81.08
2022-10-20T07:34:13.163Z,80.57
2022-10-20T07:34:56.750Z,80.22
2022-10-20T07:35:54.750Z,80.22
2022-10-20T07:36:54.722Z,79.41
2022-10-20T07:37:54.708Z,79.64
2022-10-20T07:38:54.716Z,78.68
2022-10-20T07:39:54.677Z,78.07
2022-10-20T07:40:55.722Z,76.90
2022-10-20T07:41:54.636Z,76.16
2022-10-20T07:42:54.621Z,76.02
2022-10-20T07:43:54.652Z,75.44
2022-10-20T07:44:54.577Z,75.44
2022-10-20T07:45:54.561Z,75.13
2022-10-20T07:46:54.533Z,75.17
2022-10-20T07:47:54.544Z,75.85
2022-10-20T07:48:54.527Z,76.19
2022-10-20T07:49:54.494Z,77.18
2022-10-20T07:50:54.450Z,76.06
2022-10-20T07:51:54.460Z,75.20
2022-10-20T07:52:54.501Z,75.61
2022-10-20T07:53:58.155Z,75.41
2022-10-20T07:55:06.259Z,74.63
2022-10-20T07:55:56.358Z,75.04
2022-10-20T07:56:54.402Z,76.09
2022-10-20T07:57:54.368Z,75.85
2022-10-20T07:58:54.378Z,75.95
2022-10-20T07:59:54.311Z,75.34
2022-10-20T08:00:54.292Z,75.51
2022-10-20T08:01:56.207Z,74.45
2022-10-20T08:02:55.280Z,73.94
2022-10-20T08:03:54.244Z,73.71
2022-10-20T08:04:54.278Z,73.03
2022-10-20T08:05:54.219Z,73.43
2022-10-20T08:06:54.225Z,74.69
2022-10-20T08:07:54.167Z,74.96
2022-10-20T08:08:54.217Z,74.62
2022-10-20T08:09:54.181Z,74.25
2022-10-20T08:10:54.125Z,73.94
2022-10-20T08:11:55.618Z,73.94
2022-10-20T08:12:55.127Z,73.84
2022-10-20T08:13:54.138Z,74.49
2022-10-20T08:14:55.033Z,75.24
2022-10-20T08:15:54.274Z,75.34
2022-10-20T08:16:58.572Z,75.24
2022-10-20T08:17:55.002Z,75.78
2022-10-20T08:19:59.969Z,76.53
2022-10-20T08:20:53.972Z,77.35
2022-10-20T08:21:53.934Z,77.59
2022-10-20T08:22:53.947Z,77.49
2022-10-20T08:23:53.955Z,78.14
2022-10-20T08:24:53.955Z,78.20
2022-10-20T08:25:53.926Z,78.31
2022-10-20T08:26:53.924Z,78.31
2022-10-20T08:27:53.955Z,78.00
2022-10-20T08:28:53.838Z,78.04
2022-10-20T08:30:00.264Z,78.00
2022-10-20T08:30:55.809Z,78.34
2022-10-20T08:31:53.833Z,78.65
2022-10-20T08:32:53.777Z,78.65
2022-10-20T08:33:53.747Z,78.11
2022-10-20T08:34:53.815Z,78.00
2022-10-20T08:35:53.748Z,78.17
2022-10-20T08:36:53.702Z,77.76
2022-10-20T08:37:53.753Z,77.90
2022-10-20T08:38:53.701Z,77.97
2022-10-20T08:39:54.512Z,77.35
2022-10-20T08:40:53.636Z,77.45
2022-10-20T08:42:08.104Z,77.25
2022-10-20T08:42:55.591Z,76.81
2022-10-20T08:43:53.583Z,76.70
2022-10-20T08:44:53.602Z,76.70
2022-10-20T08:45:53.575Z,76.70
2022-10-20T08:46:55.443Z,76.29
2022-10-20T08:47:56.416Z,75.89
2022-10-20T08:48:53.958Z,75.78
2022-10-20T08:49:53.513Z,76.09
2022-10-20T08:50:53.475Z,75.75
2022-10-20T08:51:53.445Z,75.75
2022-10-20T08:52:53.486Z,75.65
2022-10-20T08:53:53.433Z,76.16
2022-10-20T08:54:53.425Z,75.54
2022-10-20T08:55:53.377Z,77.18
2022-10-20T08:56:53.361Z,75.44
2022-10-20T08:57:53.338Z,75.75
2022-10-20T08:58:53.364Z,75.44
2022-10-20T08:59:53.351Z,76.40
2022-10-20T09:00:53.282Z,75.54
2022-10-20T09:01:53.332Z,75.85
2022-10-20T09:02:53.273Z,76.06
2022-10-20T09:03:53.254Z,76.02
2022-10-20T09:04:53.273Z,75.20
2022-10-20T09:05:53.203Z,75.34
2022-10-20T09:06:53.180Z,75.85
2022-10-20T09:07:54.178Z,76.43
2022-10-20T09:08:53.256Z,75.41
2022-10-20T09:09:53.189Z,75.10
2022-10-20T09:10:53.114Z,74.15
2022-10-20T09:11:53.102Z,75.10
2022-10-20T09:12:53.129Z,75.31
2022-10-20T09:13:53.114Z,75.51
2022-10-20T09:14:53.061Z,74.90
2022-10-20T09:15:53.051Z,74.15
2022-10-20T09:17:00.290Z,74.66
2022-10-20T09:17:55.042Z,74.86
2022-10-20T09:18:53.012Z,73.84
2022-10-20T09:19:53.050Z,74.45
2022-10-20T09:20:53.001Z,74.83
2022-10-20T09:21:52.914Z,73.84
2022-10-20T09:22:53.031Z,73.19
2022-10-20T09:23:52.911Z,72.69
2022-10-20T09:24:52.948Z,73.23
2022-10-20T09:25:52.847Z,72.99
2022-10-20T09:27:33.370Z,74.01
2022-10-20T09:27:52.808Z,73.10
2022-10-20T09:29:12.013Z,73.23
2022-10-20T09:29:54.794Z,72.11
2022-10-20T09:30:52.741Z,72.52
2022-10-20T09:31:52.723Z,71.47
2022-10-20T09:32:52.718Z,71.77
2022-10-20T09:33:52.695Z,71.53
2022-10-20T09:34:52.724Z,70.79
2022-10-20T09:35:52.657Z,69.23
2022-10-20T09:36:52.647Z,69.81
2022-10-20T09:37:52.745Z,68.66
2022-10-20T09:38:52.625Z,68.66
2022-10-20T09:39:55.393Z,66.72
2022-10-20T09:40:53.594Z,67.17
2022-10-20T09:41:52.654Z,65.89
2022-10-20T09:42:52.598Z,64.41
2022-10-20T09:43:54.459Z,63.47
2022-10-20T09:44:52.554Z,62.19
2022-10-20T09:45:52.499Z,61.13
2022-10-20T09:46:52.493Z,60.84
2022-10-20T09:47:52.694Z,58.92
2022-10-20T09:48:52.484Z,58.72
2022-10-20T09:49:54.239Z,58.22
2022-10-20T09:50:52.415Z,59.05
2022-10-20T09:52:52.390Z,59.58
2022-10-20T09:53:52.364Z,60.32
2022-10-20T09:54:52.365Z,60.55
2022-10-20T09:55:52.334Z,60.96
2022-10-20T09:56:52.311Z,62.66
2022-10-20T09:57:52.290Z,63.09
2022-10-20T09:58:52.274Z,63.23
2022-10-20T09:59:53.306Z,64.58
2022-10-20T10:00:52.285Z,65.45
2022-10-20T10:01:52.221Z,66.60
2022-10-20T10:02:52.212Z,67.13
2022-10-20T10:03:52.188Z,67.64
2022-10-20T10:04:52.204Z,68.05
2022-10-20T10:05:52.168Z,68.59
2022-10-20T10:06:52.146Z,68.89
2022-10-20T10:07:52.121Z,69.23
2022-10-20T10:08:52.176Z,69.74
2022-10-20T10:09:52.118Z,70.07
2022-10-20T10:10:52.064Z,69.74
2022-10-20T10:11:52.055Z,70.25
2022-10-20T10:12:52.150Z,69.94
2022-10-20T10:13:52.047Z,69.53
2022-10-20T10:14:52.034Z,69.60
2022-10-20T10:15:51.982Z,70.11
2022-10-20T10:16:51.974Z,70.11
2022-10-20T10:17:51.954Z,69.81
2022-10-20T10:18:51.926Z,69.26
2022-10-20T10:19:55.410Z,69.09
2022-10-20T10:20:51.913Z,69.91
2022-10-20T10:21:51.885Z,70.04
2022-10-20T10:22:51.879Z,70.55
2022-10-20T10:23:51.851Z,70.25
2022-10-20T10:24:51.931Z,70.25
2022-10-20T10:25:51.830Z,70.55
2022-10-20T10:26:51.806Z,70.45
2022-10-20T10:27:51.781Z,70.65
2022-10-20T10:28:51.763Z,70.62
2022-10-20T10:29:51.782Z,71.03
2022-10-20T10:30:51.722Z,70.92
2022-10-20T10:31:52.716Z,71.12
2022-10-20T10:32:51.704Z,70.42
2022-10-20T10:33:51.698Z,70.92
2022-10-20T10:34:51.764Z,70.48
2022-10-20T10:35:51.661Z,69.67
2022-10-20T10:36:51.634Z,69.98
2022-10-20T10:37:51.624Z,70.48
2022-10-20T10:38:51.593Z,69.43
2022-10-20T10:39:51.610Z,69.54
2022-10-20T10:40:51.589Z,69.03
2022-10-20T10:41:51.598Z,69.87
2022-10-20T10:42:51.528Z,69.57
2022-10-20T10:43:51.513Z,69.98
2022-10-20T10:44:51.519Z,69.47
2022-10-20T10:45:51.495Z,69.47
2022-10-20T10:46:51.936Z,69.37
2022-10-20T10:47:51.483Z,69.87
2022-10-20T10:48:51.443Z,69.67
2022-10-20T10:49:51.455Z,69.87
2022-10-20T10:50:51.503Z,69.91
2022-10-20T10:51:51.374Z,70.42
2022-10-20T10:52:51.369Z,70.52
2022-10-20T10:53:51.349Z,70.82
2022-10-20T10:54:51.382Z,70.96
2022-10-20T10:55:51.334Z,70.65
2022-10-20T10:56:51.309Z,70.99
2022-10-20T10:57:51.288Z,71.30
2022-10-20T10:58:51.270Z,71.30
2022-10-20T10:59:51.285Z,72.04
2022-10-20T11:00:51.258Z,72.34
2022-10-20T11:01:51.222Z,72.62
2022-10-20T11:02:51.194Z,72.72
2022-10-20T11:03:51.201Z,72.21
2022-10-20T11:04:51.216Z,72.28
2022-10-20T11:05:52.149Z,72.17
2022-10-20T11:06:54.242Z,71.36
2022-10-20T11:07:53.118Z,71.47
2022-10-20T11:08:51.185Z,71.47
2022-10-20T11:09:51.090Z,72.04
2022-10-20T11:10:51.079Z,71.73
2022-10-20T11:11:51.044Z,70.92
2022-10-20T11:12:51.039Z,71.40
2022-10-20T11:13:51.052Z,71.12
2022-10-20T11:14:51.009Z,70.68
2022-10-20T11:15:50.985Z,71.12
2022-10-20T11:16:50.972Z,70.92
2022-10-20T11:17:50.949Z,70.92
2022-10-20T11:18:50.982Z,70.72
2022-10-20T11:19:50.935Z,71.30
2022-10-20T11:20:50.901Z,70.99
2022-10-20T11:21:50.904Z,71.26
2022-10-20T11:22:50.866Z,70.62
2022-10-20T11:23:50.923Z,69.47
2022-10-20T11:24:50.843Z,68.66
2022-10-20T11:25:50.833Z,68.56
2022-10-20T11:26:50.819Z,67.78
2022-10-20T11:27:50.792Z,68.66
2022-10-20T11:28:50.782Z,68.56
2022-10-20T11:29:50.803Z,68.56
2022-10-20T11:30:50.820Z,68.35
2022-10-20T11:31:50.723Z,68.66
2022-10-20T11:32:50.720Z,68.35
2022-10-20T11:33:50.687Z,67.75
2022-10-20T11:34:50.701Z,68.29
2022-10-20T11:35:50.643Z,69.60
2022-10-20T11:36:51.660Z,69.60
2022-10-20T11:37:50.634Z,69.71
2022-10-20T11:38:50.624Z,69.51
2022-10-20T11:39:50.622Z,70.25
2022-10-20T11:40:50.578Z,70.35
2022-10-20T11:41:50.576Z,70.59
2022-10-20T11:42:50.561Z,70.72
2022-10-20T11:43:50.533Z,71.12
2022-10-20T11:44:50.546Z,72.45
2022-10-20T11:45:50.504Z,72.17
2022-10-20T11:46:50.482Z,72.69
2022-10-20T11:47:50.464Z,71.73
2022-10-20T11:48:50.444Z,71.97
2022-10-20T11:49:50.451Z,72.28
2022-10-20T11:50:50.447Z,73.19
2022-10-20T11:51:50.409Z,72.72
2022-10-20T11:52:50.375Z,73.63
2022-10-20T11:53:50.357Z,72.52
2022-10-20T11:54:50.389Z,72.82
2022-10-20T11:55:50.329Z,73.33
2022-10-20T11:56:50.312Z,73.23
2022-10-20T11:57:50.298Z,72.82
2022-10-20T11:58:50.492Z,74.35
2022-10-20T11:59:50.294Z,74.55
2022-10-20T12:00:50.247Z,74.65
2022-10-20T12:01:50.248Z,74.04
2022-10-20T12:02:50.210Z,74.24
2022-10-20T12:03:50.208Z,73.97
2022-10-20T12:04:50.216Z,74.76
2022-10-20T12:05:50.204Z,74.79
2022-10-20T12:06:50.140Z,74.69
2022-10-20T12:07:54.124Z,75.40
2022-10-20T12:08:51.174Z,75.09
2022-10-20T12:09:50.124Z,75.81
2022-10-20T12:10:50.090Z,75.09
2022-10-20T12:11:50.069Z,75.09
2022-10-20T12:12:50.044Z,75.50
2022-10-20T12:13:50.038Z,75.30
2022-10-20T12:14:50.057Z,75.30
2022-10-20T12:15:50.044Z,75.30
2022-10-20T12:16:49.972Z,76.72
2022-10-20T12:17:49.957Z,75.74
2022-10-20T12:18:49.979Z,76.76
2022-10-20T12:19:49.973Z,76.76
2022-10-20T12:20:49.915Z,76.35
2022-10-20T12:21:49.892Z,77.17
2022-10-20T12:22:49.890Z,76.04
2022-10-20T12:23:49.862Z,76.15
2022-10-20T12:24:49.881Z,76.79
2022-10-20T12:25:49.826Z,77.06
2022-10-20T12:26:49.816Z,77.40
2022-10-20T12:27:49.812Z,77.67
2022-10-20T12:28:49.782Z,78.63
2022-10-20T12:29:49.790Z,79.03
2022-10-20T12:30:49.752Z,79.54
2022-10-20T12:31:52.458Z,80.29
2022-10-20T12:32:50.712Z,79.89
2022-10-20T12:33:49.696Z,80.09
2022-10-20T12:34:49.716Z,79.89
2022-10-20T12:35:49.671Z,80.54
2022-10-20T12:36:49.693Z,80.64
2022-10-20T12:37:49.662Z,80.57
2022-10-20T12:38:49.606Z,81.76
2022-10-20T12:39:49.625Z,81.04
2022-10-20T12:40:49.583Z,81.56
2022-10-20T12:41:49.576Z,81.66
2022-10-20T12:42:49.559Z,80.74
2022-10-20T12:43:49.526Z,81.76
2022-10-20T12:44:49.546Z,80.80
2022-10-20T12:45:49.503Z,81.25
2022-10-20T12:46:49.499Z,80.80
2022-10-20T12:47:49.478Z,81.11
2022-10-20T12:48:49.517Z,81.21
2022-10-20T12:49:49.605Z,80.70
2022-10-20T12:50:49.429Z,80.43
2022-10-20T12:51:49.421Z,80.43
2022-10-20T12:52:49.382Z,80.54
2022-10-20T12:53:49.366Z,81.56
2022-10-20T12:54:49.397Z,81.56
2022-10-20T12:55:49.325Z,81.04
2022-10-20T12:56:49.324Z,81.25
2022-10-20T12:57:49.291Z,81.41